Map

Track Data

SID SEASON NUMBER BASIN SUBBASIN NAME ISO_TIME NATURE LAT LON WMO_WIND WMO_PRES WMO_AGENCY TRACK_TYPE DIST2LAND LANDFALL IFLAG USA_AGENCY USA_ATCF_ID USA_LAT USA_LON USA_RECORD USA_STATUS USA_WIND USA_PRES USA_SSHS USA_R34_NE USA_R34_SE USA_R34_SW USA_R34_NW USA_R50_NE USA_R50_SE USA_R50_SW USA_R50_NW USA_R64_NE USA_R64_SE USA_R64_SW USA_R64_NW USA_POCI USA_ROCI USA_RMW USA_EYE TOKYO_LAT TOKYO_LON TOKYO_GRADE TOKYO_WIND TOKYO_PRES TOKYO_R50_DIR TOKYO_R50_LONG TOKYO_R50_SHORT TOKYO_R30_DIR TOKYO_R30_LONG TOKYO_R30_SHORT TOKYO_LAND CMA_LAT CMA_LON CMA_CAT CMA_WIND CMA_PRES HKO_LAT HKO_LON HKO_CAT HKO_WIND HKO_PRES NEWDELHI_LAT NEWDELHI_LON NEWDELHI_GRADE NEWDELHI_WIND NEWDELHI_PRES NEWDELHI_CI NEWDELHI_DP NEWDELHI_POCI REUNION_LAT REUNION_LON REUNION_TYPE REUNION_WIND REUNION_PRES REUNION_TNUM REUNION_CI REUNION_RMW REUNION_R34_NE REUNION_R34_SE REUNION_R34_SW REUNION_R34_NW REUNION_R50_NE REUNION_R50_SE REUNION_R50_SW REUNION_R50_NW REUNION_R64_NE REUNION_R64_SE REUNION_R64_SW REUNION_R64_NW BOM_LAT BOM_LON BOM_TYPE BOM_WIND BOM_PRES BOM_TNUM BOM_CI BOM_RMW BOM_R34_NE BOM_R34_SE BOM_R34_SW BOM_R34_NW BOM_R50_NE BOM_R50_SE BOM_R50_SW BOM_R50_NW BOM_R64_NE BOM_R64_SE BOM_R64_SW BOM_R64_NW BOM_ROCI BOM_POCI BOM_EYE BOM_POS_METHOD BOM_PRES_METHOD NADI_LAT NADI_LON NADI_CAT NADI_WIND NADI_PRES WELLINGTON_LAT WELLINGTON_LON WELLINGTON_WIND WELLINGTON_PRES DS824_LAT DS824_LON DS824_STAGE DS824_WIND DS824_PRES TD9636_LAT TD9636_LON TD9636_STAGE TD9636_WIND TD9636_PRES TD9635_LAT TD9635_LON TD9635_WIND TD9635_PRES TD9635_ROCI NEUMANN_LAT NEUMANN_LON NEUMANN_CLASS NEUMANN_WIND NEUMANN_PRES MLC_LAT MLC_LON MLC_CLASS MLC_WIND MLC_PRES USA_GUST BOM_GUST BOM_GUST_PER REUNION_GUST REUNION_GUST_PER USA_SEAHGT USA_SEARAD_NE USA_SEARAD_SE USA_SEARAD_SW USA_SEARAD_NW STORM_SPEED STORM_DIR
1968268N26286 1968 97 NA NA FRANCES 1968-09-23 12:00:00 MX 26.2000 -73.7500 25 hurdat_atl main 444 434 O_____________ hurdat_atl AL121968 26.4000 -73.5000 SD 25 -2 8 347
1968268N26286 1968 97 NA NA FRANCES 1968-09-23 15:00:00 MX 26.5838 -73.8474 main 452 442 P_____________ AL121968 26.8050 -73.5999 SD 25 -2 8 347
1968268N26286 1968 97 NA NA FRANCES 1968-09-23 18:00:00 MX 26.9500 -73.9500 25 hurdat_atl main 460 452 O_____________ hurdat_atl AL121968 27.2000 -73.7000 SD 25 -2 7 345
1968268N26286 1968 97 NA NA FRANCES 1968-09-23 21:00:00 MX 27.2862 -74.0575 main 459 459 P_____________ AL121968 27.5725 -73.8000 SD 25 -2 7 345
1968268N26286 1968 97 NA NA FRANCES 1968-09-24 00:00:00 MX 27.6000 -74.1500 25 hurdat_atl main 478 470 O_____________ hurdat_atl AL121968 27.9000 -73.9000 SD 25 -2 6 347
1968268N26286 1968 97 NA NA FRANCES 1968-09-24 03:00:00 MX 27.9075 -74.2150 main 490 490 P_____________ AL121968 28.1725 -74.0075 SD 25 -2 6 352
1968268N26286 1968 97 NA NA FRANCES 1968-09-24 06:00:00 MX 28.2000 -74.2500 25 hurdat_atl main 512 504 O_____________ hurdat_atl AL121968 28.4000 -74.1000 SD 25 -2 6 356
1968268N26286 1968 97 NA NA FRANCES 1968-09-24 09:00:00 MX 28.4712 -74.2687 main 527 527 P_____________ AL121968 28.5925 -74.1725 SD 27 -2 6 0
1968268N26286 1968 97 NA NA FRANCES 1968-09-24 12:00:00 MX 28.7500 -74.2500 30 hurdat_atl main 558 558 O_____________ hurdat_atl AL121968 28.8000 -74.2000 SD 30 -2 6 3
1968268N26286 1968 97 NA NA FRANCES 1968-09-24 15:00:00 MX 29.0636 -74.2234 main 583 583 P_____________ AL121968 29.0774 -74.2022 SD 30 -2 7 11
1968268N26286 1968 97 NA NA FRANCES 1968-09-24 18:00:00 MX 29.4000 -74.1000 30 1012 hurdat_atl main 615 607 O_____________ hurdat_atl AL121968 29.4000 -74.1000 SD 30 1012 -2 8 27
1968268N26286 1968 97 NA NA FRANCES 1968-09-24 21:00:00 MX 29.7500 -73.8276 main 602 584 P_____________ AL121968 29.7499 -73.8601 SD 30 -2 9 39
1968268N26286 1968 97 NA NA FRANCES 1968-09-25 00:00:00 MX 30.1000 -73.4500 30 hurdat_atl main 589 574 O_____________ hurdat_atl AL121968 30.1000 -73.5000 SD 30 -2 10 45
1968268N26286 1968 97 NA NA FRANCES 1968-09-25 03:00:00 MX 30.4362 -73.0436 main 580 567 P_____________ AL121968 30.4075 -73.0723 SD 30 -2 10 48
1968268N26286 1968 97 NA NA FRANCES 1968-09-25 06:00:00 MX 30.7500 -72.6000 30 hurdat_atl main 567 567 O_____________ hurdat_atl AL121968 30.7000 -72.6000 SD 30 -2 10 52
1968268N26286 1968 97 NA NA FRANCES 1968-09-25 09:00:00 MX 31.0286 -72.1571 main 575 573 P_____________ AL121968 30.9998 -72.1497 SD 30 -2 9 54
1968268N26286 1968 97 NA NA FRANCES 1968-09-25 12:00:00 MX 31.3000 -71.7000 30 1012 hurdat_atl main 585 585 O_____________ hurdat_atl AL121968 31.3000 -71.7000 SD 30 1012 -2 10 54
1968268N26286 1968 97 NA NA FRANCES 1968-09-25 15:00:00 MX 31.6037 -71.2175 main 599 599 P_____________ AL121968 31.5999 -71.2423 SD 30 -2 10 53
1968268N26286 1968 97 NA NA FRANCES 1968-09-25 18:00:00 MX 31.9000 -70.7500 30 hurdat_atl main 617 609 O_____________ hurdat_atl AL121968 31.9000 -70.8000 SD 30 -2 9 54
1968268N26286 1968 97 NA NA FRANCES 1968-09-25 21:00:00 MX 32.1611 -70.3272 main 624 624 P_____________ AL121968 32.2074 -70.3774 SD 30 -2 8 54
1968268N26286 1968 97 NA NA FRANCES 1968-09-26 00:00:00 MX 32.4000 -69.9500 30 hurdat_atl main 638 632 O_____________ hurdat_atl AL121968 32.5000 -70.0000 SD 30 -2 8 52
1968268N26286 1968 97 NA NA FRANCES 1968-09-26 03:00:00 MX 32.6399 -69.6024 main 648 641 P_____________ AL121968 32.7648 -69.6847 SD 30 -2 7 51
1968268N26286 1968 97 NA NA FRANCES 1968-09-26 06:00:00 MX 32.8500 -69.3000 30 hurdat_atl main 653 653 O_____________ hurdat_atl AL121968 33.0000 -69.4000 SD 30 -2 6 52
1968268N26286 1968 97 NA NA FRANCES 1968-09-26 09:00:00 MX 33.0111 -69.0460 main 671 666 P_____________ AL121968 33.2149 -69.0999 SD 32 -2 5 54
1968268N26286 1968 97 NA NA FRANCES 1968-09-26 12:00:00 TS 33.1500 -68.8000 35 hurdat_atl main 677 677 O_____________ hurdat_atl AL121968 33.4000 -68.8000 TS 35 0 5 57
1968268N26286 1968 97 NA NA FRANCES 1968-09-26 15:00:00 TS 33.3038 -68.5000 main 697 697 P_____________ AL121968 33.5650 -68.4924 TS 37 0 6 59
1968268N26286 1968 97 NA NA FRANCES 1968-09-26 18:00:00 TS 33.4500 -68.2000 40 1003 hurdat_atl main 713 713 O_____________ hurdat_atl AL121968 33.7000 -68.2000 TS 40 1003 0 5 59
1968268N26286 1968 97 NA NA FRANCES 1968-09-26 21:00:00 TS 33.5786 -67.9498 main 735 735 P_____________ AL121968 33.8074 -67.9498 TS 40 0 5 59
1968268N26286 1968 97 NA NA FRANCES 1968-09-27 00:00:00 TS 33.7000 -67.7000 40 hurdat_atl main 748 748 O_____________ hurdat_atl AL121968 33.9000 -67.7000 TS 40 0 5 61
1968268N26286 1968 97 NA NA FRANCES 1968-09-27 03:00:00 TS 33.8210 -67.4298 main 770 770 P_____________ AL121968 33.9998 -67.4299 TS 42 0 6 63
1968268N26286 1968 97 NA NA FRANCES 1968-09-27 06:00:00 TS 33.9500 -67.1000 45 hurdat_atl main 789 789 O_____________ hurdat_atl AL121968 34.1000 -67.1000 TS 45 0 7 65
1968268N26286 1968 97 NA NA FRANCES 1968-09-27 09:00:00 TS 34.1076 -66.6727 main 822 822 P_____________ AL121968 34.2001 -66.6725 TS 47 0 8 68
1968268N26286 1968 97 NA NA FRANCES 1968-09-27 12:00:00 TS 34.2500 -66.2000 50 hurdat_atl main 860 860 O_____________ hurdat_atl AL121968 34.3000 -66.2000 TS 50 0 8 73
1968268N26286 1968 97 NA NA FRANCES 1968-09-27 15:00:00 TS 34.3241 -65.8018 main 896 896 P_____________ AL121968 34.3991 -65.8022 TS 50 0 8 79
1968268N26286 1968 97 NA NA FRANCES 1968-09-27 18:00:00 TS 34.4000 -65.3000 50 1001 hurdat_atl main 910 910 O_____________ hurdat_atl AL121968 34.5000 -65.3000 TS 50 1001 0 10 78
1968268N26286 1968 97 NA NA FRANCES 1968-09-27 21:00:00 TS 34.5463 -64.5678 main 929 924 P_____________ AL121968 34.6000 -64.5674 TS 50 0 13 77
1968268N26286 1968 97 NA NA FRANCES 1968-09-28 00:00:00 TS 34.7000 -63.7000 50 hurdat_atl main 952 952 O_____________ hurdat_atl AL121968 34.7000 -63.7000 TS 50 0 14 79
1968268N26286 1968 97 NA NA FRANCES 1968-09-28 03:00:00 TS 34.8104 -62.8371 main 990 989 P_____________ AL121968 34.7991 -62.8372 TS 47 0 15 82
1968268N26286 1968 97 NA NA FRANCES 1968-09-28 06:00:00 TS 34.9000 -61.9000 45 hurdat_atl main 1000 1000 O_____________ hurdat_atl AL121968 34.9000 -61.9000 TS 45 0 16 84
1968268N26286 1968 97 NA NA FRANCES 1968-09-28 09:00:00 TS 34.9673 -60.8643 main 1018 1018 P_____________ AL121968 34.9923 -60.8646 TS 45 0 17 85
1968268N26286 1968 97 NA NA FRANCES 1968-09-28 12:00:00 TS 35.0500 -59.8000 45 hurdat_atl main 1046 1050 O_____________ hurdat_atl AL121968 35.1000 -59.8000 TS 45 0 17 82
1968268N26286 1968 97 NA NA FRANCES 1968-09-28 15:00:00 TS 35.1951 -58.8003 main 1078 1078 P_____________ AL121968 35.2413 -58.7998 TS 45 0 17 80
1968268N26286 1968 97 NA NA FRANCES 1968-09-28 18:00:00 TS 35.3500 -57.8000 45 1003 hurdat_atl main 1105 1105 O_____________ hurdat_atl AL121968 35.4000 -57.8000 TS 45 1003 0 17 81
1968268N26286 1968 97 NA NA FRANCES 1968-09-28 21:00:00 TS 35.4566 -56.7644 main 1138 1138 P_____________ AL121968 35.5491 -56.7646 TS 42 1003 0 17 83
1968268N26286 1968 97 NA NA FRANCES 1968-09-29 00:00:00 TS 35.5500 -55.7000 40 hurdat_atl main 1160 1160 I_____________ hurdat_atl AL121968 35.7000 -55.7000 TS 40 1003 0 17 83
1968268N26286 1968 97 NA NA FRANCES 1968-09-29 03:00:00 TS 35.6741 -54.6533 main 1186 1186 P_____________ AL121968 35.8853 -54.6536 TS 40 1003 0 18 84
1968268N26286 1968 97 NA NA FRANCES 1968-09-29 06:00:00 TS 35.7500 -53.5000 40 1004 hurdat_atl main 1201 1201 O_____________ hurdat_atl AL121968 36.0000 -53.5000 TS 40 1004 0 20 89
1968268N26286 1968 97 NA NA FRANCES 1968-09-29 09:00:00 TS 35.7053 -52.1290 main 1216 1216 P_____________ AL121968 35.9453 -52.1288 TS 37 0 23 94
1968268N26286 1968 97 NA NA FRANCES 1968-09-29 12:00:00 ET 35.5714 -50.7000 35 hurdat_atl main 1241 1241 O_____________ hurdat_atl AL121968 35.8000 -50.7000 EX 35 -4 22 97
1968268N26286 1968 97 NA NA FRANCES 1968-09-29 15:00:00 ET 35.4230 -49.3922 main 1285 1285 P_____________ AL121968 35.6174 -49.4058 EX 35 -4 21 96
1968268N26286 1968 97 NA NA FRANCES 1968-09-29 18:00:00 ET 35.3400 -48.1000 35 hurdat_atl main 1327 1327 O_____________ hurdat_atl AL121968 35.5000 -48.1000 EX 35 -4 22 89
1968268N26286 1968 97 NA NA FRANCES 1968-09-29 21:00:00 ET 35.4541 -46.6733 main 1348 1348 P_____________ AL121968 35.5391 -46.6728 EX 32 -4 24 81
1968268N26286 1968 97 NA NA FRANCES 1968-09-30 00:00:00 ET 35.7000 -45.2000 30 atcf main 1382 1382 O_____________ atcf AL121968 35.7000 -45.2000 EX 30 -4 24 79
1968268N26286 1968 97 NA NA FRANCES 1968-09-30 03:00:00 ET 35.9335 -43.7417 main 1427 1422 P_____________ AL121968 35.9186 -43.7425 EX 30 -4 24 78
1968268N26286 1968 97 NA NA FRANCES 1968-09-30 06:00:00 ET 36.2000 -42.3000 30 atcf main 1466 1466 O_____________ atcf AL121968 36.2000 -42.3000 EX 30 -4 23 77
1968268N26286 1968 97 NA NA FRANCES 1968-09-30 09:00:00 ET 36.4826 -40.9061 main 1513 1513 P_____________ AL121968 36.4826 -40.9061 EX 30 -4 23 75
1968268N26286 1968 97 NA NA FRANCES 1968-09-30 12:00:00 ET 36.8000 -39.5000 30 atcf main 1568 1568 O_____________ atcf AL121968 36.8000 -39.5000 EX 30 -4 24 74
1968268N26286 1968 97 NA NA FRANCES 1968-09-30 15:00:00 ET 37.1469 -38.0257 main 1635 1633 P_____________ AL121968 37.1469 -38.0257 EX 30 -4 25 74
1968268N26286 1968 97 NA NA FRANCES 1968-09-30 18:00:00 ET 37.5000 -36.5000 30 atcf main 1699 O_____________ atcf AL121968 37.5000 -36.5000 EX 30 -4 25 74

About IBTrACS Database

This database is a web-friendly format of International Best Track Archive for Climate Stewardship (IBTrACS), a global best track data archive curated by NOAA dating back to 1842.

Updated: 2022-11-16